sensor_id;sensor_type;location;lat;lon;timestamp;pressure;altitude;pressure_sealevel;temperature;humidity
81151;BME280;70629;-26.026;27.976;2023-08-24T00:01:26;86483.69;;;12.97;31.10
81151;BME280;70629;-26.026;27.976;2023-08-24T00:03:01;86480.44;;;12.83;30.97
81151;BME280;70629;-26.026;27.976;2023-08-24T00:04:37;86476.13;;;12.93;30.72
81151;BME280;70629;-26.026;27.976;2023-08-24T00:06:12;86483.56;;;12.77;30.79
81151;BME280;70629;-26.026;27.976;2023-08-24T00:07:47;86482.59;;;12.86;31.48
81151;BME280;70629;-26.026;27.976;2023-08-24T00:09:23;86483.25;;;13.02;31.68
81151;BME280;70629;-26.026;27.976;2023-08-24T00:10:58;86486.53;;;12.83;30.97
81151;BME280;70629;-26.026;27.976;2023-08-24T00:12:33;86491.22;;;12.83;30.94
81151;BME280;70629;-26.026;27.976;2023-08-24T00:14:10;86488.78;;;12.89;32.33
81151;BME280;70629;-26.026;27.976;2023-08-24T00:15:45;86486.69;;;12.87;32.94
81151;BME280;70629;-26.026;27.976;2023-08-24T00:17:20;86479.91;;;12.86;31.54
81151;BME280;70629;-26.026;27.976;2023-08-24T00:18:55;86485.38;;;12.55;33.02
81151;BME280;70629;-26.026;27.976;2023-08-24T00:20:30;86477.38;;;12.57;32.58
81151;BME280;70629;-26.026;27.976;2023-08-24T00:22:06;86480.84;;;12.44;32.89
81151;BME280;70629;-26.026;27.976;2023-08-24T00:23:41;86475.31;;;12.24;35.16
81151;BME280;70629;-26.026;27.976;2023-08-24T00:25:17;86481.22;;;12.36;34.81
81151;BME280;70629;-26.026;27.976;2023-08-24T00:26:52;86476.09;;;12.26;34.18
81151;BME280;70629;-26.026;27.976;2023-08-24T00:28:27;86477.81;;;12.36;33.53
81151;BME280;70629;-26.026;27.976;2023-08-24T00:30:03;86472.69;;;12.26;34.90
81151;BME280;70629;-26.026;27.976;2023-08-24T00:31:39;86467.47;;;12.46;32.85
81151;BME280;70629;-26.026;27.976;2023-08-24T00:33:14;86470.16;;;12.46;32.85
81151;BME280;70629;-26.026;27.976;2023-08-24T00:34:49;86469.66;;;12.18;32.45
81151;BME280;70629;-26.026;27.976;2023-08-24T00:36:24;86471.44;;;12.45;32.72
81151;BME280;70629;-26.026;27.976;2023-08-24T00:37:59;86465.81;;;12.39;32.54
81151;BME280;70629;-26.026;27.976;2023-08-24T00:39:34;86468.00;;;12.11;34.02
81151;BME280;70629;-26.026;27.976;2023-08-24T00:41:09;86473.16;;;12.05;34.70
81151;BME280;70629;-26.026;27.976;2023-08-24T00:42:44;86468.88;;;12.15;34.61
81151;BME280;70629;-26.026;27.976;2023-08-24T00:44:23;86467.41;;;12.12;35.05
81151;BME280;70629;-26.026;27.976;2023-08-24T00:46:00;86473.13;;;11.89;34.32
81151;BME280;70629;-26.026;27.976;2023-08-24T00:47:41;86470.78;;;11.97;34.03
81151;BME280;70629;-26.026;27.976;2023-08-24T00:49:17;86466.78;;;11.98;33.48
81151;BME280;70629;-26.026;27.976;2023-08-24T00:50:53;86472.16;;;12.29;34.11
81151;BME280;70629;-26.026;27.976;2023-08-24T00:52:30;86473.75;;;12.03;33.88
81151;BME280;70629;-26.026;27.976;2023-08-24T00:54:06;86476.72;;;11.64;36.01
81151;BME280;70629;-26.026;27.976;2023-08-24T00:55:41;86469.03;;;11.88;35.68
81151;BME280;70629;-26.026;27.976;2023-08-24T00:57:16;86472.97;;;11.56;36.51
81151;BME280;70629;-26.026;27.976;2023-08-24T00:58:52;86473.03;;;11.42;36.01
81151;BME280;70629;-26.026;27.976;2023-08-24T01:00:31;86473.81;;;11.44;36.32
81151;BME280;70629;-26.026;27.976;2023-08-24T01:02:07;86480.66;;;11.61;35.85
81151;BME280;70629;-26.026;27.976;2023-08-24T01:03:42;86475.66;;;11.85;35.77
81151;BME280;70629;-26.026;27.976;2023-08-24T01:05:17;86477.53;;;11.67;36.01
81151;BME280;70629;-26.026;27.976;2023-08-24T01:06:52;86486.09;;;11.93;35.41
81151;BME280;70629;-26.026;27.976;2023-08-24T01:08:27;86480.53;;;11.59;35.79
81151;BME280;70629;-26.026;27.976;2023-08-24T01:10:03;86483.09;;;11.71;34.96
81151;BME280;70629;-26.026;27.976;2023-08-24T01:11:53;86475.84;;;11.44;34.64
81151;BME280;70629;-26.026;27.976;2023-08-24T01:13:59;86480.84;;;11.36;34.88
81151;BME280;70629;-26.026;27.976;2023-08-24T01:17:18;86483.16;;;11.57;35.64
81151;BME280;70629;-26.026;27.976;2023-08-24T01:18:57;86481.59;;;11.23;37.66
81151;BME280;70629;-26.026;27.976;2023-08-24T01:20:34;86482.81;;;11.65;37.45
81151;BME280;70629;-26.026;27.976;2023-08-24T01:24:19;86485.69;;;11.24;35.33
81151;BME280;70629;-26.026;27.976;2023-08-24T01:27:44;86486.84;;;11.05;37.84
81151;BME280;70629;-26.026;27.976;2023-08-24T01:29:20;86490.75;;;10.88;38.45
81151;BME280;70629;-26.026;27.976;2023-08-24T01:30:55;86487.34;;;10.88;38.53
81151;BME280;70629;-26.026;27.976;2023-08-24T01:32:31;86488.16;;;10.90;39.27
81151;BME280;70629;-26.026;27.976;2023-08-24T01:34:07;86482.56;;;11.00;38.40
81151;BME280;70629;-26.026;27.976;2023-08-24T01:35:42;86478.00;;;10.89;39.07
81151;BME280;70629;-26.026;27.976;2023-08-24T01:37:17;86483.13;;;10.69;38.00
81151;BME280;70629;-26.026;27.976;2023-08-24T01:40:59;86476.34;;;10.68;39.27
81151;BME280;70629;-26.026;27.976;2023-08-24T01:43:12;86484.84;;;10.63;38.79
81151;BME280;70629;-26.026;27.976;2023-08-24T01:44:50;86488.06;;;10.88;39.10
81151;BME280;70629;-26.026;27.976;2023-08-24T01:46:26;86486.47;;;10.97;37.12
81151;BME280;70629;-26.026;27.976;2023-08-24T01:48:03;86491.38;;;10.87;37.61
81151;BME280;70629;-26.026;27.976;2023-08-24T01:49:40;86496.09;;;11.02;38.00
81151;BME280;70629;-26.026;27.976;2023-08-24T01:51:16;86495.88;;;10.55;41.29
81151;BME280;70629;-26.026;27.976;2023-08-24T01:52:51;86496.97;;;10.36;40.73
81151;BME280;70629;-26.026;27.976;2023-08-24T01:54:27;86495.50;;;10.33;41.41
81151;BME280;70629;-26.026;27.976;2023-08-24T01:56:09;86494.22;;;10.34;40.27
81151;BME280;70629;-26.026;27.976;2023-08-24T01:57:44;86494.09;;;10.32;42.15
81151;BME280;70629;-26.026;27.976;2023-08-24T01:59:19;86490.44;;;10.26;40.97
81151;BME280;70629;-26.026;27.976;2023-08-24T02:00:54;86499.19;;;10.26;40.48
81151;BME280;70629;-26.026;27.976;2023-08-24T02:02:29;86496.56;;;10.14;40.53
81151;BME280;70629;-26.026;27.976;2023-08-24T02:04:04;86495.16;;;10.13;40.17
81151;BME280;70629;-26.026;27.976;2023-08-24T02:05:39;86484.25;;;10.23;41.03
81151;BME280;70629;-26.026;27.976;2023-08-24T02:07:14;86491.72;;;10.38;41.20
81151;BME280;70629;-26.026;27.976;2023-08-24T02:08:49;86485.06;;;10.26;40.13
81151;BME280;70629;-26.026;27.976;2023-08-24T02:10:24;86483.94;;;10.17;40.47
81151;BME280;70629;-26.026;27.976;2023-08-24T02:11:59;86491.25;;;9.89;40.94
81151;BME280;70629;-26.026;27.976;2023-08-24T02:13:34;86492.47;;;10.13;41.36
81151;BME280;70629;-26.026;27.976;2023-08-24T02:15:09;86493.19;;;10.14;41.16
81151;BME280;70629;-26.026;27.976;2023-08-24T02:16:44;86485.59;;;9.97;41.29
81151;BME280;70629;-26.026;27.976;2023-08-24T02:18:20;86487.69;;;9.98;42.24
81151;BME280;70629;-26.026;27.976;2023-08-24T02:19:55;86484.34;;;10.11;42.64
81151;BME280;70629;-26.026;27.976;2023-08-24T02:21:30;86488.69;;;9.91;41.92
81151;BME280;70629;-26.026;27.976;2023-08-24T02:23:05;86487.16;;;9.75;42.11
81151;BME280;70629;-26.026;27.976;2023-08-24T02:24:40;86490.06;;;9.79;42.27
81151;BME280;70629;-26.026;27.976;2023-08-24T02:26:15;86484.91;;;9.96;43.07
81151;BME280;70629;-26.026;27.976;2023-08-24T02:27:50;86477.97;;;10.32;41.86
81151;BME280;70629;-26.026;27.976;2023-08-24T02:29:25;86477.94;;;9.78;42.00
81151;BME280;70629;-26.026;27.976;2023-08-24T02:31:02;86478.31;;;9.72;43.09
81151;BME280;70629;-26.026;27.976;2023-08-24T02:32:37;86478.69;;;9.66;43.22
81151;BME280;70629;-26.026;27.976;2023-08-24T02:34:12;86475.50;;;9.70;42.92
81151;BME280;70629;-26.026;27.976;2023-08-24T02:35:47;86474.19;;;9.57;43.34
81151;BME280;70629;-26.026;27.976;2023-08-24T02:37:23;86474.50;;;9.50;43.25
81151;BME280;70629;-26.026;27.976;2023-08-24T02:38:58;86472.69;;;9.93;43.50
81151;BME280;70629;-26.026;27.976;2023-08-24T02:40:34;86472.88;;;9.84;43.77
81151;BME280;70629;-26.026;27.976;2023-08-24T02:42:09;86474.44;;;9.89;43.47
81151;BME280;70629;-26.026;27.976;2023-08-24T02:43:44;86469.56;;;9.72;43.47
81151;BME280;70629;-26.026;27.976;2023-08-24T02:45:20;86476.13;;;9.68;44.30
81151;BME280;70629;-26.026;27.976;2023-08-24T02:46:55;86479.50;;;9.69;45.72
81151;BME280;70629;-26.026;27.976;2023-08-24T02:48:30;86478.72;;;9.80;44.70
81151;BME280;70629;-26.026;27.976;2023-08-24T02:50:06;86481.28;;;9.64;44.13
81151;BME280;70629;-26.026;27.976;2023-08-24T02:51:41;86485.97;;;9.39;44.23
81151;BME280;70629;-26.026;27.976;2023-08-24T02:53:15;86488.09;;;9.79;44.09
81151;BME280;70629;-26.026;27.976;2023-08-24T02:54:50;86486.44;;;9.60;44.05
81151;BME280;70629;-26.026;27.976;2023-08-24T02:56:25;86479.16;;;9.49;44.50
81151;BME280;70629;-26.026;27.976;2023-08-24T02:58:00;86482.59;;;9.77;44.06
81151;BME280;70629;-26.026;27.976;2023-08-24T02:59:35;86481.78;;;9.75;44.22
81151;BME280;70629;-26.026;27.976;2023-08-24T03:01:10;86476.69;;;9.53;45.25
81151;BME280;70629;-26.026;27.976;2023-08-24T03:02:45;86474.97;;;9.46;45.40
81151;BME280;70629;-26.026;27.976;2023-08-24T03:04:20;86478.50;;;9.37;44.85
81151;BME280;70629;-26.026;27.976;2023-08-24T03:06:03;86474.34;;;9.34;44.96
81151;BME280;70629;-26.026;27.976;2023-08-24T03:07:38;86484.34;;;9.20;45.77
81151;BME280;70629;-26.026;27.976;2023-08-24T03:09:15;86483.66;;;8.94;45.32
81151;BME280;70629;-26.026;27.976;2023-08-24T03:10:50;86483.03;;;8.96;46.16
81151;BME280;70629;-26.026;27.976;2023-08-24T03:12:25;86481.59;;;9.06;45.27
81151;BME280;70629;-26.026;27.976;2023-08-24T03:14:00;86478.44;;;9.35;43.61
81151;BME280;70629;-26.026;27.976;2023-08-24T03:15:35;86485.44;;;9.29;44.72
81151;BME280;70629;-26.026;27.976;2023-08-24T03:17:12;86478.97;;;9.20;44.34
81151;BME280;70629;-26.026;27.976;2023-08-24T03:18:47;86486.81;;;9.16;45.56
81151;BME280;70629;-26.026;27.976;2023-08-24T03:20:21;86491.41;;;9.27;45.48
81151;BME280;70629;-26.026;27.976;2023-08-24T03:21:57;86485.19;;;9.11;44.67
81151;BME280;70629;-26.026;27.976;2023-08-24T03:23:31;86479.16;;;9.49;44.44
81151;BME280;70629;-26.026;27.976;2023-08-24T03:25:06;86483.91;;;9.12;44.51
81151;BME280;70629;-26.026;27.976;2023-08-24T03:26:41;86489.38;;;9.39;44.62
81151;BME280;70629;-26.026;27.976;2023-08-24T03:28:16;86489.22;;;8.98;45.31
81151;BME280;70629;-26.026;27.976;2023-08-24T03:29:53;86497.22;;;9.10;45.49
81151;BME280;70629;-26.026;27.976;2023-08-24T03:31:28;86492.16;;;9.16;46.29
81151;BME280;70629;-26.026;27.976;2023-08-24T03:33:04;86493.19;;;8.97;46.45
81151;BME280;70629;-26.026;27.976;2023-08-24T03:34:39;86497.47;;;9.02;47.45
81151;BME280;70629;-26.026;27.976;2023-08-24T03:36:14;86499.94;;;8.98;47.80
81151;BME280;70629;-26.026;27.976;2023-08-24T03:37:49;86495.72;;;9.07;46.51
81151;BME280;70629;-26.026;27.976;2023-08-24T03:39:24;86500.94;;;8.79;46.47
81151;BME280;70629;-26.026;27.976;2023-08-24T03:41:02;86491.13;;;8.84;47.55
81151;BME280;70629;-26.026;27.976;2023-08-24T03:42:38;86494.81;;;8.65;47.27
81151;BME280;70629;-26.026;27.976;2023-08-24T03:44:12;86494.53;;;8.73;46.86
81151;BME280;70629;-26.026;27.976;2023-08-24T03:45:47;86499.13;;;8.70;45.89
81151;BME280;70629;-26.026;27.976;2023-08-24T03:47:23;86503.63;;;8.79;46.23
81151;BME280;70629;-26.026;27.976;2023-08-24T03:48:57;86508.00;;;8.61;46.82
81151;BME280;70629;-26.026;27.976;2023-08-24T03:50:32;86512.75;;;8.74;46.42
81151;BME280;70629;-26.026;27.976;2023-08-24T03:52:07;86505.81;;;8.83;46.31
81151;BME280;70629;-26.026;27.976;2023-08-24T03:53:44;86508.72;;;8.87;46.40
81151;BME280;70629;-26.026;27.976;2023-08-24T03:55:19;86507.28;;;8.98;46.81
81151;BME280;70629;-26.026;27.976;2023-08-24T03:56:53;86518.06;;;8.38;47.78
81151;BME280;70629;-26.026;27.976;2023-08-24T03:58:28;86515.25;;;8.24;47.12
81151;BME280;70629;-26.026;27.976;2023-08-24T04:00:07;86517.91;;;8.59;46.37
81151;BME280;70629;-26.026;27.976;2023-08-24T04:01:45;86509.84;;;8.70;45.70
81151;BME280;70629;-26.026;27.976;2023-08-24T04:03:20;86512.63;;;8.72;45.07
81151;BME280;70629;-26.026;27.976;2023-08-24T04:04:55;86510.97;;;8.79;45.81
81151;BME280;70629;-26.026;27.976;2023-08-24T04:06:30;86508.38;;;8.93;46.63
81151;BME280;70629;-26.026;27.976;2023-08-24T04:08:05;86512.47;;;8.82;46.34
81151;BME280;70629;-26.026;27.976;2023-08-24T04:09:41;86517.41;;;8.62;48.21
81151;BME280;70629;-26.026;27.976;2023-08-24T04:11:16;86515.91;;;8.59;47.92
81151;BME280;70629;-26.026;27.976;2023-08-24T04:12:51;86513.53;;;8.77;48.46
81151;BME280;70629;-26.026;27.976;2023-08-24T04:14:25;86511.53;;;8.89;49.05
81151;BME280;70629;-26.026;27.976;2023-08-24T04:16:00;86509.75;;;8.57;49.37
81151;BME280;70629;-26.026;27.976;2023-08-24T04:17:35;86511.97;;;8.49;49.30
81151;BME280;70629;-26.026;27.976;2023-08-24T04:19:10;86519.13;;;8.81;48.61
81151;BME280;70629;-26.026;27.976;2023-08-24T04:20:45;86510.38;;;8.80;48.34
81151;BME280;70629;-26.026;27.976;2023-08-24T04:22:19;86513.44;;;8.75;48.35
81151;BME280;70629;-26.026;27.976;2023-08-24T04:23:54;86518.38;;;8.55;49.25
81151;BME280;70629;-26.026;27.976;2023-08-24T04:25:29;86515.41;;;8.74;49.46
81151;BME280;70629;-26.026;27.976;2023-08-24T04:27:05;86514.00;;;8.85;49.37
81151;BME280;70629;-26.026;27.976;2023-08-24T04:28:40;86506.53;;;8.84;48.50
81151;BME280;70629;-26.026;27.976;2023-08-24T04:30:16;86510.91;;;8.91;49.01
81151;BME280;70629;-26.026;27.976;2023-08-24T04:31:51;86505.56;;;8.91;47.38
81151;BME280;70629;-26.026;27.976;2023-08-24T04:33:26;86509.00;;;8.68;48.02
81151;BME280;70629;-26.026;27.976;2023-08-24T04:35:01;86502.59;;;8.73;48.80
81151;BME280;70629;-26.026;27.976;2023-08-24T04:36:36;86515.34;;;8.61;49.30
81151;BME280;70629;-26.026;27.976;2023-08-24T04:38:11;86508.00;;;8.61;48.58
81151;BME280;70629;-26.026;27.976;2023-08-24T04:39:47;86510.72;;;8.38;49.24
81151;BME280;70629;-26.026;27.976;2023-08-24T04:41:21;86506.25;;;8.54;49.21
81151;BME280;70629;-26.026;27.976;2023-08-24T04:42:56;86515.91;;;8.59;49.65
81151;BME280;70629;-26.026;27.976;2023-08-24T04:44:31;86505.94;;;8.85;48.80
81151;BME280;70629;-26.026;27.976;2023-08-24T04:46:07;86506.19;;;8.77;49.93
81151;BME280;70629;-26.026;27.976;2023-08-24T04:47:42;86500.28;;;8.67;50.14
81151;BME280;70629;-26.026;27.976;2023-08-24T04:49:17;86509.00;;;8.68;50.88
81151;BME280;70629;-26.026;27.976;2023-08-24T04:50:52;86508.25;;;8.91;48.38
81151;BME280;70629;-26.026;27.976;2023-08-24T04:52:27;86513.16;;;8.94;47.32
81151;BME280;70629;-26.026;27.976;2023-08-24T04:54:02;86510.31;;;9.04;47.08
81151;BME280;70629;-26.026;27.976;2023-08-24T04:55:37;86514.16;;;9.01;47.81
81151;BME280;70629;-26.026;27.976;2023-08-24T04:57:12;86514.66;;;9.22;47.72
81151;BME280;70629;-26.026;27.976;2023-08-24T04:58:56;86513.16;;;9.19;48.36
81151;BME280;70629;-26.026;27.976;2023-08-24T05:00:32;86516.19;;;9.14;48.60
81151;BME280;70629;-26.026;27.976;2023-08-24T05:02:07;86513.03;;;8.92;48.98
81151;BME280;70629;-26.026;27.976;2023-08-24T05:03:42;86521.41;;;8.61;50.21
81151;BME280;70629;-26.026;27.976;2023-08-24T05:05:17;86517.59;;;9.15;49.24
81151;BME280;70629;-26.026;27.976;2023-08-24T05:06:52;86525.44;;;9.36;48.74
81151;BME280;70629;-26.026;27.976;2023-08-24T05:08:27;86518.56;;;9.08;48.02
81151;BME280;70629;-26.026;27.976;2023-08-24T05:10:02;86527.81;;;9.30;48.84
81151;BME280;70629;-26.026;27.976;2023-08-24T05:11:37;86522.66;;;9.34;48.43
81151;BME280;70629;-26.026;27.976;2023-08-24T05:13:12;86520.50;;;9.19;49.70
81151;BME280;70629;-26.026;27.976;2023-08-24T05:14:47;86519.81;;;9.44;47.29
81151;BME280;70629;-26.026;27.976;2023-08-24T05:16:22;86526.91;;;9.25;49.12
81151;BME280;70629;-26.026;27.976;2023-08-24T05:17:57;86534.25;;;9.25;48.48
81151;BME280;70629;-26.026;27.976;2023-08-24T05:19:33;86541.06;;;9.40;48.94
81151;BME280;70629;-26.026;27.976;2023-08-24T05:21:08;86532.31;;;9.64;48.70
81151;BME280;70629;-26.026;27.976;2023-08-24T05:22:43;86542.38;;;9.52;48.51
81151;BME280;70629;-26.026;27.976;2023-08-24T05:24:17;86548.00;;;9.70;47.89
81151;BME280;70629;-26.026;27.976;2023-08-24T05:25:52;86555.91;;;9.80;47.85
81151;BME280;70629;-26.026;27.976;2023-08-24T05:27:27;86557.22;;;9.79;47.25
81151;BME280;70629;-26.026;27.976;2023-08-24T05:29:02;86571.97;;;9.66;48.45
81151;BME280;70629;-26.026;27.976;2023-08-24T05:30:37;86569.97;;;9.92;47.24
81151;BME280;70629;-26.026;27.976;2023-08-24T05:32:12;86567.69;;;10.00;46.78
81151;BME280;70629;-26.026;27.976;2023-08-24T05:33:47;86562.69;;;9.94;48.27
81151;BME280;70629;-26.026;27.976;2023-08-24T05:35:22;86560.84;;;9.97;47.44
81151;BME280;70629;-26.026;27.976;2023-08-24T05:36:57;86574.25;;;9.97;46.44
81151;BME280;70629;-26.026;27.976;2023-08-24T05:38:32;86571.75;;;10.26;46.28
81151;BME280;70629;-26.026;27.976;2023-08-24T05:40:07;86566.88;;;10.36;46.26
81151;BME280;70629;-26.026;27.976;2023-08-24T05:41:42;86570.25;;;10.37;45.35
81151;BME280;70629;-26.026;27.976;2023-08-24T05:43:17;86582.75;;;10.57;44.05
81151;BME280;70629;-26.026;27.976;2023-08-24T05:44:52;86578.84;;;10.74;43.73
81151;BME280;70629;-26.026;27.976;2023-08-24T05:46:27;86583.53;;;10.87;43.66
81151;BME280;70629;-26.026;27.976;2023-08-24T05:48:02;86577.03;;;10.92;43.91
81151;BME280;70629;-26.026;27.976;2023-08-24T05:49:37;86583.84;;;12.09;40.03
81151;BME280;70629;-26.026;27.976;2023-08-24T05:51:12;86588.31;;;11.88;41.32
81151;BME280;70629;-26.026;27.976;2023-08-24T05:52:47;86586.09;;;11.56;40.76
81151;BME280;70629;-26.026;27.976;2023-08-24T05:54:22;86587.03;;;11.47;41.42
81151;BME280;70629;-26.026;27.976;2023-08-24T05:55:59;86597.31;;;11.36;42.30
81151;BME280;70629;-26.026;27.976;2023-08-24T05:57:35;86594.78;;;11.54;42.46
81151;BME280;70629;-26.026;27.976;2023-08-24T05:59:09;86595.75;;;11.74;40.39
81151;BME280;70629;-26.026;27.976;2023-08-24T06:00:44;86595.03;;;12.03;39.83
81151;BME280;70629;-26.026;27.976;2023-08-24T06:02:20;86589.16;;;12.22;37.63
81151;BME280;70629;-26.026;27.976;2023-08-24T06:03:55;86594.91;;;12.62;34.28
81151;BME280;70629;-26.026;27.976;2023-08-24T06:05:30;86592.38;;;12.82;31.96
81151;BME280;70629;-26.026;27.976;2023-08-24T06:07:05;86596.66;;;12.87;31.57
81151;BME280;70629;-26.026;27.976;2023-08-24T06:08:41;86593.94;;;13.02;32.29
81151;BME280;70629;-26.026;27.976;2023-08-24T06:10:16;86596.69;;;13.36;29.88
81151;BME280;70629;-26.026;27.976;2023-08-24T06:11:51;86599.09;;;13.45;28.24
81151;BME280;70629;-26.026;27.976;2023-08-24T06:13:26;86597.50;;;13.56;29.31
81151;BME280;70629;-26.026;27.976;2023-08-24T06:15:01;86593.19;;;13.67;28.70
81151;BME280;70629;-26.026;27.976;2023-08-24T06:16:38;86590.72;;;13.73;28.17
81151;BME280;70629;-26.026;27.976;2023-08-24T06:18:13;86593.13;;;13.82;28.27
81151;BME280;70629;-26.026;27.976;2023-08-24T06:19:48;86590.97;;;13.79;29.13
81151;BME280;70629;-26.026;27.976;2023-08-24T06:21:23;86590.88;;;13.94;29.16
81151;BME280;70629;-26.026;27.976;2023-08-24T06:22:58;86589.72;;;13.99;28.42
81151;BME280;70629;-26.026;27.976;2023-08-24T06:24:33;86588.41;;;14.18;28.06
81151;BME280;70629;-26.026;27.976;2023-08-24T06:26:09;86589.25;;;14.23;27.91
81151;BME280;70629;-26.026;27.976;2023-08-24T06:27:44;86588.56;;;14.22;27.91
81151;BME280;70629;-26.026;27.976;2023-08-24T06:29:19;86587.19;;;14.39;27.37
81151;BME280;70629;-26.026;27.976;2023-08-24T06:30:55;86592.19;;;14.46;27.55
81151;BME280;70629;-26.026;27.976;2023-08-24T06:32:30;86590.00;;;14.61;26.57
81151;BME280;70629;-26.026;27.976;2023-08-24T06:34:05;86592.25;;;14.66;26.59
81151;BME280;70629;-26.026;27.976;2023-08-24T06:35:40;86593.38;;;14.79;26.57
81151;BME280;70629;-26.026;27.976;2023-08-24T06:37:15;86597.81;;;14.90;26.61
81151;BME280;70629;-26.026;27.976;2023-08-24T06:38:51;86599.97;;;14.93;27.11
81151;BME280;70629;-26.026;27.976;2023-08-24T06:40:26;86599.06;;;15.07;25.92
81151;BME280;70629;-26.026;27.976;2023-08-24T06:42:01;86600.78;;;15.16;25.98
81151;BME280;70629;-26.026;27.976;2023-08-24T06:43:37;86599.09;;;15.26;26.20
81151;BME280;70629;-26.026;27.976;2023-08-24T06:45:15;86600.34;;;15.43;26.12
81151;BME280;70629;-26.026;27.976;2023-08-24T06:46:52;86608.47;;;15.43;26.35
81151;BME280;70629;-26.026;27.976;2023-08-24T06:48:27;86605.34;;;15.51;26.02
81151;BME280;70629;-26.026;27.976;2023-08-24T06:50:02;86602.63;;;15.70;26.51
81151;BME280;70629;-26.026;27.976;2023-08-24T06:51:38;86599.03;;;15.86;25.79
81151;BME280;70629;-26.026;27.976;2023-08-24T06:53:12;86600.88;;;16.01;26.10
81151;BME280;70629;-26.026;27.976;2023-08-24T06:54:49;86604.09;;;16.17;26.26
81151;BME280;70629;-26.026;27.976;2023-08-24T06:56:27;86598.78;;;16.21;26.22
81151;BME280;70629;-26.026;27.976;2023-08-24T06:58:03;86592.34;;;16.32;26.32
81151;BME280;70629;-26.026;27.976;2023-08-24T06:59:40;86594.19;;;16.47;26.71
81151;BME280;70629;-26.026;27.976;2023-08-24T07:01:15;86592.78;;;16.46;25.31
81151;BME280;70629;-26.026;27.976;2023-08-24T07:02:50;86591.94;;;16.63;26.65
81151;BME280;70629;-26.026;27.976;2023-08-24T07:04:26;86595.38;;;16.88;26.58
81151;BME280;70629;-26.026;27.976;2023-08-24T07:06:02;86585.13;;;17.10;26.31
81151;BME280;70629;-26.026;27.976;2023-08-24T07:07:37;86582.75;;;17.22;25.93
81151;BME280;70629;-26.026;27.976;2023-08-24T07:09:12;86582.53;;;17.40;25.82
81151;BME280;70629;-26.026;27.976;2023-08-24T07:10:47;86575.13;;;17.42;25.18
81151;BME280;70629;-26.026;27.976;2023-08-24T07:12:22;86579.81;;;17.66;24.97
81151;BME280;70629;-26.026;27.976;2023-08-24T07:13:57;86570.69;;;17.55;25.23
81151;BME280;70629;-26.026;27.976;2023-08-24T07:15:32;86577.44;;;17.80;24.68
81151;BME280;70629;-26.026;27.976;2023-08-24T07:17:09;86580.25;;;17.82;25.06
81151;BME280;70629;-26.026;27.976;2023-08-24T07:18:44;86569.94;;;18.06;24.06
81151;BME280;70629;-26.026;27.976;2023-08-24T07:20:19;86577.22;;;18.25;24.63
81151;BME280;70629;-26.026;27.976;2023-08-24T07:21:54;86571.13;;;18.57;25.10
81151;BME280;70629;-26.026;27.976;2023-08-24T07:23:29;86571.53;;;18.75;24.95
81151;BME280;70629;-26.026;27.976;2023-08-24T07:25:05;86571.50;;;18.73;23.87
81151;BME280;70629;-26.026;27.976;2023-08-24T07:26:41;86569.88;;;18.94;24.00
81151;BME280;70629;-26.026;27.976;2023-08-24T07:28:19;86566.91;;;19.13;25.44
81151;BME280;70629;-26.026;27.976;2023-08-24T07:29:55;86573.16;;;19.20;24.75
81151;BME280;70629;-26.026;27.976;2023-08-24T07:31:29;86572.84;;;19.38;25.64
81151;BME280;70629;-26.026;27.976;2023-08-24T07:33:04;86575.28;;;19.57;25.14
81151;BME280;70629;-26.026;27.976;2023-08-24T07:34:39;86567.09;;;19.95;24.51
81151;BME280;70629;-26.026;27.976;2023-08-24T07:36:15;86574.34;;;19.81;25.37
81151;BME280;70629;-26.026;27.976;2023-08-24T07:37:50;86573.28;;;19.98;26.34
81151;BME280;70629;-26.026;27.976;2023-08-24T07:39:26;86573.44;;;19.68;25.79
81151;BME280;70629;-26.026;27.976;2023-08-24T07:41:01;86563.34;;;20.14;25.17
81151;BME280;70629;-26.026;27.976;2023-08-24T07:42:46;86574.53;;;20.31;26.45
81151;BME280;70629;-26.026;27.976;2023-08-24T07:44:21;86570.50;;;20.34;27.84
81151;BME280;70629;-26.026;27.976;2023-08-24T07:45:56;86576.97;;;20.54;27.55
81151;BME280;70629;-26.026;27.976;2023-08-24T07:47:31;86574.88;;;20.51;27.05
81151;BME280;70629;-26.026;27.976;2023-08-24T07:49:06;86576.31;;;20.56;27.48
81151;BME280;70629;-26.026;27.976;2023-08-24T07:50:41;86581.88;;;20.62;27.17
81151;BME280;70629;-26.026;27.976;2023-08-24T07:52:16;86574.97;;;20.57;26.14
81151;BME280;70629;-26.026;27.976;2023-08-24T07:53:51;86578.31;;;20.99;27.32
81151;BME280;70629;-26.026;27.976;2023-08-24T07:55:26;86581.41;;;21.24;25.92
81151;BME280;70629;-26.026;27.976;2023-08-24T07:57:01;86580.19;;;21.35;26.51
81151;BME280;70629;-26.026;27.976;2023-08-24T07:58:36;86573.25;;;21.28;25.51
81151;BME280;70629;-26.026;27.976;2023-08-24T08:00:13;86576.34;;;21.04;25.49
81151;BME280;70629;-26.026;27.976;2023-08-24T08:01:48;86580.75;;;21.25;25.40
81151;BME280;70629;-26.026;27.976;2023-08-24T08:03:23;86575.72;;;21.62;24.87
81151;BME280;70629;-26.026;27.976;2023-08-24T08:04:58;86569.25;;;21.35;25.26
81151;BME280;70629;-26.026;27.976;2023-08-24T08:06:33;86572.59;;;21.29;24.65
81151;BME280;70629;-26.026;27.976;2023-08-24T08:08:08;86571.84;;;21.23;24.91
81151;BME280;70629;-26.026;27.976;2023-08-24T08:09:43;86569.09;;;21.79;26.48
81151;BME280;70629;-26.026;27.976;2023-08-24T08:11:18;86565.56;;;21.72;27.17
81151;BME280;70629;-26.026;27.976;2023-08-24T08:12:53;86567.03;;;21.81;27.23
81151;BME280;70629;-26.026;27.976;2023-08-24T08:14:28;86566.47;;;21.91;27.04
81151;BME280;70629;-26.026;27.976;2023-08-24T08:16:04;86559.19;;;22.14;26.51
81151;BME280;70629;-26.026;27.976;2023-08-24T08:17:39;86560.88;;;21.81;27.27
81151;BME280;70629;-26.026;27.976;2023-08-24T08:19:16;86562.66;;;22.16;27.86
81151;BME280;70629;-26.026;27.976;2023-08-24T08:20:53;86567.56;;;22.32;29.39
81151;BME280;70629;-26.026;27.976;2023-08-24T08:22:28;86564.75;;;22.22;28.95
81151;BME280;70629;-26.026;27.976;2023-08-24T08:24:03;86556.50;;;22.20;27.38